AAL746 KIAH-KSAN
Flight info
| Callsign | AAL746 |
|---|---|
| Flight time | N/A |
| Altitude | 36000 |
| Route | PITZZ5 CRGER EWM Q2 ITUCO GBN HOGGZ LUCKI1 |
| Aircraft | B738/M-SDE2E3FGHIRWXY/LB1 |
Departure
| Time | 2026-05-01 14:53 |
|---|---|
| Airport | George Bush Intercontinental Airport (KIAH) |
Arrival
| Time | N/A |
|---|---|
| Airport | San Diego International Airport (KSAN) |
| Time | Latitude | Longitude | Altitude | Speed | Heading |
|---|---|---|---|---|---|
| 2026-05-01 14:10 | 29.98529 | -95.35130 | 106 ft | 0 kts | 360° |
| 2026-05-01 14:42 | 29.98511 | -95.35130 | 105 ft | 4 kts | 360° |
| 2026-05-01 14:42 | 29.98489 | -95.35130 | 105 ft | 4 kts | 354° |
| 2026-05-01 14:42 | 29.98465 | -95.35121 | 105 ft | 4 kts | 320° |
| 2026-05-01 14:42 | 29.98453 | -95.35102 | 105 ft | 0 kts | 277° |
| 2026-05-01 14:47 | 29.98453 | -95.35103 | 105 ft | 0 kts | 277° |
| 2026-05-01 14:47 | 29.98455 | -95.35119 | 105 ft | 4 kts | 275° |
| 2026-05-01 14:47 | 29.98457 | -95.35165 | 106 ft | 7 kts | 273° |
| 2026-05-01 14:48 | 29.98501 | -95.35273 | 106 ft | 8 kts | 327° |
| 2026-05-01 14:48 | 29.98548 | -95.35303 | 106 ft | 8 kts | 333° |
| 2026-05-01 14:48 | 29.98639 | -95.35361 | 106 ft | 7 kts | 333° |
| 2026-05-01 14:49 | 29.98740 | -95.35421 | 106 ft | 13 kts | 332° |
| 2026-05-01 14:49 | 29.98938 | -95.35484 | 106 ft | 15 kts | 0° |
| 2026-05-01 14:50 | 29.99075 | -95.35484 | 106 ft | 14 kts | 359° |
| 2026-05-01 14:50 | 29.99274 | -95.35485 | 106 ft | 7 kts | 0° |
| 2026-05-01 14:51 | 29.99325 | -95.35479 | 106 ft | 8 kts | 27° |
| 2026-05-01 14:51 | 29.99341 | -95.35420 | 106 ft | 1 kts | 88° |
| 2026-05-01 14:52 | 29.99341 | -95.35419 | 106 ft | 0 kts | 89° |
| 2026-05-01 14:52 | 29.99342 | -95.35332 | 106 ft | 40 kts | 89° |
| 2026-05-01 14:52 | 29.99346 | -95.33658 | 108 ft | 162 kts | 90° |
| 2026-05-01 14:53 | 29.99281 | -95.32215 | 436 ft | 186 kts | 90° |
| 2026-05-01 14:53 | 29.99190 | -95.30768 | 1431 ft | 176 kts | 86° |
| 2026-05-01 14:53 | 29.99046 | -95.29345 | 2125 ft | 193 kts | 100° |
| 2026-05-01 14:53 | 29.98166 | -95.27986 | 2340 ft | 229 kts | 140° |
| 2026-05-01 14:54 | 29.96796 | -95.27304 | 3390 ft | 214 kts | 167° |
| 2026-05-01 14:54 | 29.95310 | -95.27337 | 4353 ft | 204 kts | 189° |
| 2026-05-01 14:54 | 29.94017 | -95.28086 | 4744 ft | 226 kts | 227° |
| 2026-05-01 14:54 | 29.93185 | -95.29749 | 5030 ft | 254 kts | 243° |
| 2026-05-01 14:55 | 29.92429 | -95.31659 | 5613 ft | 267 kts | 243° |
| 2026-05-01 14:55 | 29.91666 | -95.33577 | 6643 ft | 259 kts | 243° |
| 2026-05-01 14:55 | 29.90899 | -95.35460 | 7507 ft | 261 kts | 242° |
| 2026-05-01 14:55 | 29.90106 | -95.37370 | 8208 ft | 266 kts | 243° |
| 2026-05-01 14:56 | 29.89301 | -95.39287 | 9068 ft | 267 kts | 243° |
| 2026-05-01 14:56 | 29.88476 | -95.41232 | 9842 ft | 271 kts | 243° |
| 2026-05-01 14:56 | 29.87637 | -95.43200 | 10449 ft | 280 kts | 243° |
| 2026-05-01 14:56 | 29.86738 | -95.45301 | 10632 ft | 305 kts | 243° |
| 2026-05-01 14:57 | 29.85763 | -95.47571 | 10788 ft | 327 kts | 243° |
| 2026-05-01 14:57 | 29.83659 | -95.52592 | 11062 ft | 367 kts | 250° |
| 2026-05-01 14:57 | 29.83238 | -95.55521 | 11393 ft | 377 kts | 269° |
| 2026-05-01 14:58 | 29.83623 | -95.58513 | 12003 ft | 382 kts | 285° |
| 2026-05-01 14:58 | 29.84759 | -95.61289 | 12699 ft | 385 kts | 296° |
| 2026-05-01 14:58 | 29.86093 | -95.63978 | 13258 ft | 387 kts | 297° |
| 2026-05-01 14:58 | 29.87460 | -95.66664 | 13745 ft | 391 kts | 297° |
| 2026-05-01 14:59 | 29.88837 | -95.69372 | 14206 ft | 392 kts | 297° |
| 2026-05-01 14:59 | 29.90208 | -95.72090 | 14763 ft | 391 kts | 296° |
| 2026-05-01 14:59 | 29.91545 | -95.74765 | 15223 ft | 391 kts | 296° |
| 2026-05-01 14:59 | 29.92898 | -95.77494 | 15679 ft | 393 kts | 295° |
| 2026-05-01 15:00 | 29.95613 | -95.83000 | 16519 ft | 396 kts | 295° |
| 2026-05-01 15:00 | 29.96973 | -95.85764 | 16958 ft | 397 kts | 295° |
| 2026-05-01 15:00 | 29.98337 | -95.88538 | 17384 ft | 398 kts | 294° |
| 2026-05-01 15:01 | 29.99704 | -95.91320 | 17785 ft | 399 kts | 294° |
| 2026-05-01 15:01 | 30.01073 | -95.94109 | 18181 ft | 401 kts | 294° |
| 2026-05-01 15:01 | 30.02448 | -95.96911 | 18473 ft | 403 kts | 294° |
| 2026-05-01 15:01 | 30.03837 | -95.99744 | 18753 ft | 406 kts | 294° |
| 2026-05-01 15:02 | 30.05230 | -96.02587 | 19056 ft | 408 kts | 294° |
| 2026-05-01 15:02 | 30.05698 | -96.03555 | 19170 ft | 408 kts | 293° |
| 2026-05-01 15:02 | 30.07432 | -96.08579 | 19619 ft | 405 kts | 281° |
| 2026-05-01 15:02 | 30.07964 | -96.11764 | 19883 ft | 405 kts | 276° |
| 2026-05-01 15:03 | 30.08425 | -96.14984 | 20135 ft | 408 kts | 277° |
| 2026-05-01 15:03 | 30.08907 | -96.18219 | 20395 ft | 410 kts | 277° |
| 2026-05-01 15:03 | 30.09406 | -96.21473 | 20656 ft | 413 kts | 277° |
| 2026-05-01 15:03 | 30.09911 | -96.24737 | 20934 ft | 415 kts | 277° |
| 2026-05-01 15:04 | 30.10419 | -96.28023 | 21180 ft | 417 kts | 277° |
| 2026-05-01 15:04 | 30.10927 | -96.31326 | 21416 ft | 419 kts | 277° |
| 2026-05-01 15:04 | 30.11438 | -96.34652 | 21690 ft | 421 kts | 277° |
| 2026-05-01 15:04 | 30.11948 | -96.37984 | 21952 ft | 422 kts | 277° |
| 2026-05-01 15:05 | 30.12460 | -96.41336 | 22180 ft | 425 kts | 277° |
| 2026-05-01 15:05 | 30.12974 | -96.44704 | 22397 ft | 427 kts | 277° |
| 2026-05-01 15:05 | 30.13491 | -96.48093 | 22619 ft | 429 kts | 277° |
| 2026-05-01 15:05 | 30.14007 | -96.51490 | 22843 ft | 431 kts | 277° |
| 2026-05-01 15:06 | 30.14526 | -96.54904 | 23054 ft | 433 kts | 277° |
| 2026-05-01 15:06 | 30.15047 | -96.58343 | 23280 ft | 435 kts | 277° |
| 2026-05-01 15:06 | 30.15568 | -96.61786 | 23490 ft | 436 kts | 277° |
| 2026-05-01 15:06 | 30.16090 | -96.65245 | 23688 ft | 438 kts | 277° |
| 2026-05-01 15:07 | 30.16613 | -96.68711 | 23906 ft | 438 kts | 277° |
| 2026-05-01 15:07 | 30.17136 | -96.72186 | 24119 ft | 439 kts | 277° |
| 2026-05-01 15:07 | 30.17659 | -96.75667 | 24326 ft | 440 kts | 277° |
| 2026-05-01 15:07 | 30.18181 | -96.79154 | 24541 ft | 440 kts | 277° |
| 2026-05-01 15:08 | 30.18703 | -96.82638 | 24763 ft | 441 kts | 276° |
| 2026-05-01 15:08 | 30.19217 | -96.86083 | 24978 ft | 441 kts | 276° |
| 2026-05-01 15:08 | 30.19745 | -96.89624 | 25171 ft | 441 kts | 276° |
| 2026-05-01 15:08 | 30.20265 | -96.93118 | 25341 ft | 442 kts | 276° |
| 2026-05-01 15:09 | 30.20778 | -96.96576 | 25510 ft | 443 kts | 276° |
| 2026-05-01 15:09 | 30.21305 | -97.00133 | 25671 ft | 443 kts | 276° |
| 2026-05-01 15:09 | 30.21819 | -97.03600 | 25814 ft | 444 kts | 276° |
| 2026-05-01 15:09 | 30.22344 | -97.07159 | 25982 ft | 443 kts | 276° |
| 2026-05-01 15:10 | 30.22858 | -97.10621 | 26176 ft | 442 kts | 276° |
| 2026-05-01 15:10 | 30.23901 | -97.17607 | 26604 ft | 440 kts | 276° |
| 2026-05-01 15:10 | 30.24402 | -97.20969 | 26790 ft | 439 kts | 276° |
| 2026-05-01 15:11 | 30.24918 | -97.24439 | 27031 ft | 438 kts | 276° |
| 2026-05-01 15:11 | 30.25943 | -97.31348 | 27585 ft | 434 kts | 275° |
| 2026-05-01 15:11 | 30.26451 | -97.34787 | 27852 ft | 433 kts | 275° |
| 2026-05-01 15:12 | 30.26956 | -97.38217 | 28150 ft | 432 kts | 275° |
| 2026-05-01 15:12 | 30.27958 | -97.45037 | 28758 ft | 429 kts | 275° |
| 2026-05-01 15:12 | 30.28456 | -97.48435 | 29076 ft | 427 kts | 275° |
| 2026-05-01 15:13 | 30.29933 | -97.58551 | 30040 ft | 423 kts | 274° |
| 2026-05-01 15:14 | 30.30905 | -97.65240 | 30588 ft | 421 kts | 274° |
| 2026-05-01 15:14 | 30.31389 | -97.68577 | 30820 ft | 421 kts | 274° |
| 2026-05-01 15:14 | 30.32464 | -97.75237 | 31318 ft | 421 kts | 277° |
| 2026-05-01 15:15 | 30.33618 | -97.80706 | 31738 ft | 421 kts | 278° |
| 2026-05-01 15:15 | 30.35051 | -97.87277 | 32269 ft | 420 kts | 278° |
| 2026-05-01 15:16 | 30.36453 | -97.93830 | 32779 ft | 418 kts | 278° |
| 2026-05-01 15:16 | 30.37830 | -98.00365 | 33285 ft | 417 kts | 277° |
| 2026-05-01 15:17 | 30.39193 | -98.06870 | 33844 ft | 414 kts | 277° |
| 2026-05-01 15:18 | 30.41210 | -98.16527 | 34617 ft | 408 kts | 277° |
| 2026-05-01 15:18 | 30.41876 | -98.19719 | 34875 ft | 406 kts | 277° |
| 2026-05-01 15:19 | 30.43847 | -98.29206 | 35637 ft | 401 kts | 277° |
| 2026-05-01 15:19 | 30.45148 | -98.35468 | 36025 ft | 400 kts | 278° |
| 2026-05-01 15:19 | 30.45821 | -98.38564 | 36016 ft | 402 kts | 278° |
| 2026-05-01 15:20 | 30.47938 | -98.47990 | 36024 ft | 399 kts | 278° |
| 2026-05-01 15:21 | 30.49329 | -98.54203 | 35988 ft | 398 kts | 278° |
| 2026-05-01 15:21 | 30.50698 | -98.60366 | 35991 ft | 397 kts | 278° |
| 2026-05-01 15:22 | 30.52751 | -98.69666 | 36012 ft | 397 kts | 278° |
| 2026-05-01 15:22 | 30.54117 | -98.75873 | 36011 ft | 397 kts | 278° |
| 2026-05-01 15:23 | 30.55481 | -98.82084 | 36013 ft | 398 kts | 278° |
| 2026-05-01 15:23 | 30.56845 | -98.88313 | 36002 ft | 398 kts | 278° |
| 2026-05-01 15:24 | 30.58205 | -98.94535 | 36001 ft | 398 kts | 278° |
| 2026-05-01 15:24 | 30.59562 | -99.00760 | 35994 ft | 398 kts | 278° |
| 2026-05-01 15:25 | 30.60915 | -99.06981 | 35995 ft | 397 kts | 278° |
| 2026-05-01 15:25 | 30.62263 | -99.13194 | 35991 ft | 397 kts | 278° |
| 2026-05-01 15:26 | 30.63609 | -99.19411 | 35991 ft | 396 kts | 277° |
| 2026-05-01 15:26 | 30.64946 | -99.25604 | 35990 ft | 395 kts | 277° |
| 2026-05-01 15:27 | 30.66279 | -99.31796 | 35990 ft | 395 kts | 277° |
| 2026-05-01 15:28 | 30.68268 | -99.41064 | 35998 ft | 394 kts | 277° |
| 2026-05-01 15:28 | 30.69590 | -99.47241 | 35994 ft | 394 kts | 277° |
| 2026-05-01 15:29 | 30.71564 | -99.56496 | 36000 ft | 393 kts | 277° |
| 2026-05-01 15:30 | 30.74184 | -99.68835 | 36006 ft | 393 kts | 277° |
| 2026-05-01 15:31 | 30.78091 | -99.87347 | 35995 ft | 393 kts | 277° |
| 2026-05-01 15:32 | 30.80675 | -99.99667 | 35986 ft | 394 kts | 277° |
| 2026-05-01 15:34 | 30.84553 | -100.18274 | 35986 ft | 395 kts | 277° |